sensor_id;sensor_type;location;lat;lon;timestamp;temperature;humidity
56076;DHT22;41951;49.022;12.066;2022-09-27T00:01:58;12.30;99.90
56076;DHT22;41951;49.022;12.066;2022-09-27T00:04:25;12.30;99.90
56076;DHT22;41951;49.022;12.066;2022-09-27T00:06:50;12.30;99.90
56076;DHT22;41951;49.022;12.066;2022-09-27T00:09:16;12.30;99.90
56076;DHT22;41951;49.022;12.066;2022-09-27T00:11:42;12.30;99.90
56076;DHT22;41951;49.022;12.066;2022-09-27T00:14:08;12.30;99.90
56076;DHT22;41951;49.022;12.066;2022-09-27T00:16:37;12.30;99.90
56076;DHT22;41951;49.022;12.066;2022-09-27T00:19:05;12.30;99.90
56076;DHT22;41951;49.022;12.066;2022-09-27T00:21:31;12.20;99.90
56076;DHT22;41951;49.022;12.066;2022-09-27T00:23:58;12.20;99.90
56076;DHT22;41951;49.022;12.066;2022-09-27T00:26:24;12.20;99.90
56076;DHT22;41951;49.022;12.066;2022-09-27T00:28:50;12.30;99.90
56076;DHT22;41951;49.022;12.066;2022-09-27T00:31:34;12.30;99.90
56076;DHT22;41951;49.022;12.066;2022-09-27T00:34:01;12.30;99.90
56076;DHT22;41951;49.022;12.066;2022-09-27T00:36:28;12.30;99.90
56076;DHT22;41951;49.022;12.066;2022-09-27T00:38:54;12.30;99.90
56076;DHT22;41951;49.022;12.066;2022-09-27T00:41:32;12.30;99.90
56076;DHT22;41951;49.022;12.066;2022-09-27T00:47:15;12.30;99.90
56076;DHT22;41951;49.022;12.066;2022-09-27T00:49:51;12.30;99.90
56076;DHT22;41951;49.022;12.066;2022-09-27T00:52:27;12.20;99.90
56076;DHT22;41951;49.022;12.066;2022-09-27T00:54:58;12.20;99.90
56076;DHT22;41951;49.022;12.066;2022-09-27T00:57:26;12.20;99.90
56076;DHT22;41951;49.022;12.066;2022-09-27T01:00:06;12.20;99.90
56076;DHT22;41951;49.022;12.066;2022-09-27T01:02:34;12.10;99.90
56076;DHT22;41951;49.022;12.066;2022-09-27T01:05:00;12.00;99.90
56076;DHT22;41951;49.022;12.066;2022-09-27T01:07:27;12.00;99.90
56076;DHT22;41951;49.022;12.066;2022-09-27T01:09:52;12.00;99.90
56076;DHT22;41951;49.022;12.066;2022-09-27T01:12:44;12.00;99.90
56076;DHT22;41951;49.022;12.066;2022-09-27T01:15:40;11.90;99.90
56076;DHT22;41951;49.022;12.066;2022-09-27T01:18:49;11.90;99.90
56076;DHT22;41951;49.022;12.066;2022-09-27T01:21:43;11.80;99.90
56076;DHT22;41951;49.022;12.066;2022-09-27T01:41:07;11.50;99.90
56076;DHT22;41951;49.022;12.066;2022-09-27T01:43:47;11.60;99.90
56076;DHT22;41951;49.022;12.066;2022-09-27T01:46:19;11.50;99.90
56076;DHT22;41951;49.022;12.066;2022-09-27T01:48:47;11.50;99.90
56076;DHT22;41951;49.022;12.066;2022-09-27T01:51:27;11.50;99.90
56076;DHT22;41951;49.022;12.066;2022-09-27T01:54:00;11.50;99.90
56076;DHT22;41951;49.022;12.066;2022-09-27T01:56:32;11.50;99.90
56076;DHT22;41951;49.022;12.066;2022-09-27T01:59:29;11.50;99.90
56076;DHT22;41951;49.022;12.066;2022-09-27T02:01:59;11.50;99.90
56076;DHT22;41951;49.022;12.066;2022-09-27T02:04:29;11.50;99.90
56076;DHT22;41951;49.022;12.066;2022-09-27T02:07:01;11.50;99.90
56076;DHT22;41951;49.022;12.066;2022-09-27T02:09:34;11.40;99.90
56076;DHT22;41951;49.022;12.066;2022-09-27T02:12:04;11.40;99.90
56076;DHT22;41951;49.022;12.066;2022-09-27T02:14:39;11.30;99.90
56076;DHT22;41951;49.022;12.066;2022-09-27T02:17:13;11.30;99.90
56076;DHT22;41951;49.022;12.066;2022-09-27T02:22:34;11.30;99.90
56076;DHT22;41951;49.022;12.066;2022-09-27T02:28:22;11.20;99.90
56076;DHT22;41951;49.022;12.066;2022-09-27T02:30:50;11.20;99.90
56076;DHT22;41951;49.022;12.066;2022-09-27T02:33:18;11.10;99.90
56076;DHT22;41951;49.022;12.066;2022-09-27T02:35:44;11.20;99.90
56076;DHT22;41951;49.022;12.066;2022-09-27T02:38:11;11.10;99.90
56076;DHT22;41951;49.022;12.066;2022-09-27T02:40:42;11.10;99.90
56076;DHT22;41951;49.022;12.066;2022-09-27T02:43:08;11.10;99.90
56076;DHT22;41951;49.022;12.066;2022-09-27T02:48:41;11.20;99.90
56076;DHT22;41951;49.022;12.066;2022-09-27T02:51:37;11.10;99.90
56076;DHT22;41951;49.022;12.066;2022-09-27T02:59:47;11.00;99.90
56076;DHT22;41951;49.022;12.066;2022-09-27T03:05:12;10.90;99.90
56076;DHT22;41951;49.022;12.066;2022-09-27T03:07:41;10.90;99.90
56076;DHT22;41951;49.022;12.066;2022-09-27T03:10:15;10.90;99.90
56076;DHT22;41951;49.022;12.066;2022-09-27T03:12:41;10.80;99.90
56076;DHT22;41951;49.022;12.066;2022-09-27T03:15:07;10.80;99.90
56076;DHT22;41951;49.022;12.066;2022-09-27T03:17:33;10.80;99.90
56076;DHT22;41951;49.022;12.066;2022-09-27T03:19:59;10.90;99.90
56076;DHT22;41951;49.022;12.066;2022-09-27T03:22:24;10.80;99.90
56076;DHT22;41951;49.022;12.066;2022-09-27T03:24:50;11.00;99.90
56076;DHT22;41951;49.022;12.066;2022-09-27T03:27:17;10.90;99.90
56076;DHT22;41951;49.022;12.066;2022-09-27T03:29:42;10.90;99.90
56076;DHT22;41951;49.022;12.066;2022-09-27T03:32:08;10.80;99.90
56076;DHT22;41951;49.022;12.066;2022-09-27T03:34:33;10.80;99.90
56076;DHT22;41951;49.022;12.066;2022-09-27T03:36:59;10.80;99.90
56076;DHT22;41951;49.022;12.066;2022-09-27T03:39:24;10.80;99.90
56076;DHT22;41951;49.022;12.066;2022-09-27T03:41:50;10.80;99.90
56076;DHT22;41951;49.022;12.066;2022-09-27T03:44:15;10.80;99.90
56076;DHT22;41951;49.022;12.066;2022-09-27T03:46:41;10.80;99.90
56076;DHT22;41951;49.022;12.066;2022-09-27T03:49:06;10.80;99.90
56076;DHT22;41951;49.022;12.066;2022-09-27T03:51:32;10.70;99.90
56076;DHT22;41951;49.022;12.066;2022-09-27T03:53:57;10.70;99.90
56076;DHT22;41951;49.022;12.066;2022-09-27T03:56:23;10.70;99.90
56076;DHT22;41951;49.022;12.066;2022-09-27T03:58:49;10.70;99.90
56076;DHT22;41951;49.022;12.066;2022-09-27T04:01:14;10.70;99.90
56076;DHT22;41951;49.022;12.066;2022-09-27T04:03:40;10.60;99.90
56076;DHT22;41951;49.022;12.066;2022-09-27T04:06:06;10.70;99.90
56076;DHT22;41951;49.022;12.066;2022-09-27T04:08:32;10.60;99.90
56076;DHT22;41951;49.022;12.066;2022-09-27T04:10:58;10.60;99.90
56076;DHT22;41951;49.022;12.066;2022-09-27T04:13:24;10.60;99.90
56076;DHT22;41951;49.022;12.066;2022-09-27T04:15:50;10.60;99.90
56076;DHT22;41951;49.022;12.066;2022-09-27T04:18:16;10.60;99.90
56076;DHT22;41951;49.022;12.066;2022-09-27T04:20:42;10.60;99.90
56076;DHT22;41951;49.022;12.066;2022-09-27T04:23:07;10.60;99.90
56076;DHT22;41951;49.022;12.066;2022-09-27T04:25:33;10.60;99.90
56076;DHT22;41951;49.022;12.066;2022-09-27T04:27:59;10.60;99.90
56076;DHT22;41951;49.022;12.066;2022-09-27T04:30:28;10.60;99.90
56076;DHT22;41951;49.022;12.066;2022-09-27T04:32:54;10.60;99.90
56076;DHT22;41951;49.022;12.066;2022-09-27T04:35:19;10.60;99.90
56076;DHT22;41951;49.022;12.066;2022-09-27T04:38:03;10.60;99.90
56076;DHT22;41951;49.022;12.066;2022-09-27T04:40:29;10.60;99.90
56076;DHT22;41951;49.022;12.066;2022-09-27T04:42:54;10.60;99.90
56076;DHT22;41951;49.022;12.066;2022-09-27T04:45:20;10.60;99.90
56076;DHT22;41951;49.022;12.066;2022-09-27T04:47:48;10.60;99.90
56076;DHT22;41951;49.022;12.066;2022-09-27T04:50:14;10.60;99.90
56076;DHT22;41951;49.022;12.066;2022-09-27T04:52:40;10.60;99.90
56076;DHT22;41951;49.022;12.066;2022-09-27T04:55:07;10.60;99.90
56076;DHT22;41951;49.022;12.066;2022-09-27T04:57:33;10.60;99.90
56076;DHT22;41951;49.022;12.066;2022-09-27T04:59:59;10.60;99.90
56076;DHT22;41951;49.022;12.066;2022-09-27T05:02:25;10.60;99.90
56076;DHT22;41951;49.022;12.066;2022-09-27T05:04:52;10.60;99.90
56076;DHT22;41951;49.022;12.066;2022-09-27T05:07:18;10.60;99.90
56076;DHT22;41951;49.022;12.066;2022-09-27T05:09:44;10.60;99.90
56076;DHT22;41951;49.022;12.066;2022-09-27T05:12:09;10.60;99.90
56076;DHT22;41951;49.022;12.066;2022-09-27T05:14:36;10.60;99.90
56076;DHT22;41951;49.022;12.066;2022-09-27T05:17:02;10.60;99.90
56076;DHT22;41951;49.022;12.066;2022-09-27T05:19:28;10.50;99.90
56076;DHT22;41951;49.022;12.066;2022-09-27T05:21:53;10.60;99.90
56076;DHT22;41951;49.022;12.066;2022-09-27T05:24:19;10.50;99.90
56076;DHT22;41951;49.022;12.066;2022-09-27T05:26:46;10.60;99.90
56076;DHT22;41951;49.022;12.066;2022-09-27T05:29:11;10.60;99.90
56076;DHT22;41951;49.022;12.066;2022-09-27T05:31:37;10.60;99.90
56076;DHT22;41951;49.022;12.066;2022-09-27T05:34:03;10.60;99.90
56076;DHT22;41951;49.022;12.066;2022-09-27T05:36:29;10.60;99.90
56076;DHT22;41951;49.022;12.066;2022-09-27T05:38:55;10.70;99.90
56076;DHT22;41951;49.022;12.066;2022-09-27T05:41:20;10.60;99.90
56076;DHT22;41951;49.022;12.066;2022-09-27T05:43:46;10.70;99.90
56076;DHT22;41951;49.022;12.066;2022-09-27T05:46:11;10.70;99.90
56076;DHT22;41951;49.022;12.066;2022-09-27T05:48:37;10.70;99.90
56076;DHT22;41951;49.022;12.066;2022-09-27T05:51:03;10.80;99.90
56076;DHT22;41951;49.022;12.066;2022-09-27T05:53:28;10.80;99.90
56076;DHT22;41951;49.022;12.066;2022-09-27T05:56:00;10.80;99.90
56076;DHT22;41951;49.022;12.066;2022-09-27T05:58:25;10.80;99.90
56076;DHT22;41951;49.022;12.066;2022-09-27T06:00:52;10.80;99.90
56076;DHT22;41951;49.022;12.066;2022-09-27T06:03:18;10.70;99.90
56076;DHT22;41951;49.022;12.066;2022-09-27T06:05:44;10.70;99.90
56076;DHT22;41951;49.022;12.066;2022-09-27T06:08:11;10.70;99.90
56076;DHT22;41951;49.022;12.066;2022-09-27T06:10:38;10.70;99.90
56076;DHT22;41951;49.022;12.066;2022-09-27T06:13:12;10.70;99.90
56076;DHT22;41951;49.022;12.066;2022-09-27T06:15:39;10.70;99.90
56076;DHT22;41951;49.022;12.066;2022-09-27T06:18:07;12.20;99.90
56076;DHT22;41951;49.022;12.066;2022-09-27T06:20:36;10.70;99.90
56076;DHT22;41951;49.022;12.066;2022-09-27T06:23:14;10.60;99.90
56076;DHT22;41951;49.022;12.066;2022-09-27T06:25:40;10.60;99.90
56076;DHT22;41951;49.022;12.066;2022-09-27T06:28:06;10.80;99.90
56076;DHT22;41951;49.022;12.066;2022-09-27T06:30:32;10.60;99.90
56076;DHT22;41951;49.022;12.066;2022-09-27T06:33:01;10.60;99.90
56076;DHT22;41951;49.022;12.066;2022-09-27T06:35:28;10.60;99.90
56076;DHT22;41951;49.022;12.066;2022-09-27T06:37:54;10.60;99.90
56076;DHT22;41951;49.022;12.066;2022-09-27T06:40:20;10.50;99.90
56076;DHT22;41951;49.022;12.066;2022-09-27T06:42:47;10.60;99.90
56076;DHT22;41951;49.022;12.066;2022-09-27T06:45:13;10.60;99.90
56076;DHT22;41951;49.022;12.066;2022-09-27T06:47:39;10.60;99.90
56076;DHT22;41951;49.022;12.066;2022-09-27T06:50:05;10.50;99.90
56076;DHT22;41951;49.022;12.066;2022-09-27T06:52:32;10.70;99.90
56076;DHT22;41951;49.022;12.066;2022-09-27T06:54:58;10.70;99.90
56076;DHT22;41951;49.022;12.066;2022-09-27T06:57:23;10.70;99.90
56076;DHT22;41951;49.022;12.066;2022-09-27T07:00:09;10.80;99.90
56076;DHT22;41951;49.022;12.066;2022-09-27T07:02:55;10.80;99.90
56076;DHT22;41951;49.022;12.066;2022-09-27T07:05:26;10.90;99.90
56076;DHT22;41951;49.022;12.066;2022-09-27T07:07:51;11.00;99.90
56076;DHT22;41951;49.022;12.066;2022-09-27T07:10:24;11.20;99.90
56076;DHT22;41951;49.022;12.066;2022-09-27T07:12:50;11.30;99.90
56076;DHT22;41951;49.022;12.066;2022-09-27T07:15:18;11.30;99.90
56076;DHT22;41951;49.022;12.066;2022-09-27T07:18:07;11.30;99.90
56076;DHT22;41951;49.022;12.066;2022-09-27T07:20:32;11.30;99.90
56076;DHT22;41951;49.022;12.066;2022-09-27T07:23:00;11.30;99.90
56076;DHT22;41951;49.022;12.066;2022-09-27T07:25:25;11.30;99.90
56076;DHT22;41951;49.022;12.066;2022-09-27T07:27:51;11.30;99.90
56076;DHT22;41951;49.022;12.066;2022-09-27T07:30:18;11.30;99.90
56076;DHT22;41951;49.022;12.066;2022-09-27T07:32:44;11.30;99.90
56076;DHT22;41951;49.022;12.066;2022-09-27T07:35:11;11.40;99.90
56076;DHT22;41951;49.022;12.066;2022-09-27T07:37:39;11.40;99.90
56076;DHT22;41951;49.022;12.066;2022-09-27T07:40:07;11.40;99.90
56076;DHT22;41951;49.022;12.066;2022-09-27T07:42:34;11.30;99.90
56076;DHT22;41951;49.022;12.066;2022-09-27T07:45:04;11.40;99.90
56076;DHT22;41951;49.022;12.066;2022-09-27T07:47:30;11.50;99.90
56076;DHT22;41951;49.022;12.066;2022-09-27T07:49:56;11.50;99.90
56076;DHT22;41951;49.022;12.066;2022-09-27T07:52:21;11.70;99.90
56076;DHT22;41951;49.022;12.066;2022-09-27T07:54:47;11.80;99.90
56076;DHT22;41951;49.022;12.066;2022-09-27T07:57:14;11.80;99.90
56076;DHT22;41951;49.022;12.066;2022-09-27T07:59:40;11.80;99.90
56076;DHT22;41951;49.022;12.066;2022-09-27T08:02:09;11.80;99.90
56076;DHT22;41951;49.022;12.066;2022-09-27T08:04:37;11.80;99.90
56076;DHT22;41951;49.022;12.066;2022-09-27T08:07:03;11.80;99.90
56076;DHT22;41951;49.022;12.066;2022-09-27T08:09:28;11.70;99.90
56076;DHT22;41951;49.022;12.066;2022-09-27T08:11:55;11.70;99.90
56076;DHT22;41951;49.022;12.066;2022-09-27T08:14:22;11.60;99.90
56076;DHT22;41951;49.022;12.066;2022-09-27T08:16:49;11.40;99.90
56076;DHT22;41951;49.022;12.066;2022-09-27T08:19:15;11.40;99.90
56076;DHT22;41951;49.022;12.066;2022-09-27T08:21:43;11.40;99.90
56076;DHT22;41951;49.022;12.066;2022-09-27T08:24:09;11.40;99.90
56076;DHT22;41951;49.022;12.066;2022-09-27T08:26:34;11.40;99.90
56076;DHT22;41951;49.022;12.066;2022-09-27T08:28:59;11.10;99.90
56076;DHT22;41951;49.022;12.066;2022-09-27T08:31:25;11.40;99.90
56076;DHT22;41951;49.022;12.066;2022-09-27T08:33:51;11.30;99.90
56076;DHT22;41951;49.022;12.066;2022-09-27T08:36:18;11.40;99.90
56076;DHT22;41951;49.022;12.066;2022-09-27T08:38:50;11.40;99.90
56076;DHT22;41951;49.022;12.066;2022-09-27T08:41:37;11.40;99.90
56076;DHT22;41951;49.022;12.066;2022-09-27T08:44:14;11.50;99.90
56076;DHT22;41951;49.022;12.066;2022-09-27T08:46:52;11.50;99.90
56076;DHT22;41951;49.022;12.066;2022-09-27T08:49:28;11.60;99.90
56076;DHT22;41951;49.022;12.066;2022-09-27T08:51:58;11.60;99.90
56076;DHT22;41951;49.022;12.066;2022-09-27T08:54:29;11.70;99.90
56076;DHT22;41951;49.022;12.066;2022-09-27T08:57:09;11.70;99.90
56076;DHT22;41951;49.022;12.066;2022-09-27T08:59:54;11.70;99.90
56076;DHT22;41951;49.022;12.066;2022-09-27T09:02:23;11.70;99.90
56076;DHT22;41951;49.022;12.066;2022-09-27T09:04:56;11.80;99.90
56076;DHT22;41951;49.022;12.066;2022-09-27T09:18:03;12.00;99.90
56076;DHT22;41951;49.022;12.066;2022-09-27T09:34:13;11.70;99.90
56076;DHT22;41951;49.022;12.066;2022-09-27T09:36:55;11.90;99.90
56076;DHT22;41951;49.022;12.066;2022-09-27T09:39:32;12.00;99.90
56076;DHT22;41951;49.022;12.066;2022-09-27T09:42:06;12.10;99.90
56076;DHT22;41951;49.022;12.066;2022-09-27T09:44:50;12.20;99.90
56076;DHT22;41951;49.022;12.066;2022-09-27T09:47:41;12.20;99.90
56076;DHT22;41951;49.022;12.066;2022-09-27T09:50:23;12.10;99.90
56076;DHT22;41951;49.022;12.066;2022-09-27T09:53:22;12.10;99.90
56076;DHT22;41951;49.022;12.066;2022-09-27T09:56:00;12.20;99.90
56076;DHT22;41951;49.022;12.066;2022-09-27T09:58:38;12.20;99.90
56076;DHT22;41951;49.022;12.066;2022-09-27T10:01:16;12.30;99.90
56076;DHT22;41951;49.022;12.066;2022-09-27T10:03:43;12.30;99.90
56076;DHT22;41951;49.022;12.066;2022-09-27T10:06:10;12.20;99.90
56076;DHT22;41951;49.022;12.066;2022-09-27T10:08:36;12.20;99.90
56076;DHT22;41951;49.022;12.066;2022-09-27T10:11:01;12.30;99.90
56076;DHT22;41951;49.022;12.066;2022-09-27T10:13:29;12.30;99.90
56076;DHT22;41951;49.022;12.066;2022-09-27T10:16:08;12.40;99.90
56076;DHT22;41951;49.022;12.066;2022-09-27T10:18:36;12.40;99.90
56076;DHT22;41951;49.022;12.066;2022-09-27T10:21:27;12.30;99.90
56076;DHT22;41951;49.022;12.066;2022-09-27T10:26:35;12.30;99.90
56076;DHT22;41951;49.022;12.066;2022-09-27T10:29:29;12.20;99.90
56076;DHT22;41951;49.022;12.066;2022-09-27T10:31:56;12.30;99.90
56076;DHT22;41951;49.022;12.066;2022-09-27T10:34:30;12.30;99.90
56076;DHT22;41951;49.022;12.066;2022-09-27T10:37:15;12.30;99.90
56076;DHT22;41951;49.022;12.066;2022-09-27T10:39:46;12.30;99.90
56076;DHT22;41951;49.022;12.066;2022-09-27T10:45:26;12.40;99.90
56076;DHT22;41951;49.022;12.066;2022-09-27T10:47:52;12.50;99.90
56076;DHT22;41951;49.022;12.066;2022-09-27T10:50:22;12.50;99.90
56076;DHT22;41951;49.022;12.066;2022-09-27T10:53:00;12.60;99.90
56076;DHT22;41951;49.022;12.066;2022-09-27T10:55:28;12.50;99.90
56076;DHT22;41951;49.022;12.066;2022-09-27T10:57:56;12.50;99.90
56076;DHT22;41951;49.022;12.066;2022-09-27T11:00:24;12.40;99.90
56076;DHT22;41951;49.022;12.066;2022-09-27T11:02:55;12.20;99.90
56076;DHT22;41951;49.022;12.066;2022-09-27T11:10:43;11.80;99.90
56076;DHT22;41951;49.022;12.066;2022-09-27T11:13:17;11.80;99.90
56076;DHT22;41951;49.022;12.066;2022-09-27T11:21:48;11.80;99.90
56076;DHT22;41951;49.022;12.066;2022-09-27T11:27:33;11.80;99.90
56076;DHT22;41951;49.022;12.066;2022-09-27T11:30:12;11.80;99.90
56076;DHT22;41951;49.022;12.066;2022-09-27T11:38:12;11.60;99.90
56076;DHT22;41951;49.022;12.066;2022-09-27T11:41:48;11.60;99.90
56076;DHT22;41951;49.022;12.066;2022-09-27T11:46:28;11.50;99.90
56076;DHT22;41951;49.022;12.066;2022-09-27T11:55:27;12.00;99.90
56076;DHT22;41951;49.022;12.066;2022-09-27T11:58:53;12.20;99.90
56076;DHT22;41951;49.022;12.066;2022-09-27T12:09:28;12.90;99.90
56076;DHT22;41951;49.022;12.066;2022-09-27T12:11:57;13.10;99.90
56076;DHT22;41951;49.022;12.066;2022-09-27T12:14:40;13.30;99.90
56076;DHT22;41951;49.022;12.066;2022-09-27T12:17:13;13.50;99.90
56076;DHT22;41951;49.022;12.066;2022-09-27T12:19:44;13.60;99.90
56076;DHT22;41951;49.022;12.066;2022-09-27T12:22:17;13.60;99.90
56076;DHT22;41951;49.022;12.066;2022-09-27T12:24:45;13.70;99.90
56076;DHT22;41951;49.022;12.066;2022-09-27T12:30:03;13.80;99.90
56076;DHT22;41951;49.022;12.066;2022-09-27T12:32:37;13.80;99.90
56076;DHT22;41951;49.022;12.066;2022-09-27T12:35:22;13.70;99.90
56076;DHT22;41951;49.022;12.066;2022-09-27T12:38:04;13.60;99.90
56076;DHT22;41951;49.022;12.066;2022-09-27T12:40:36;13.60;99.90
56076;DHT22;41951;49.022;12.066;2022-09-27T12:43:21;13.50;99.90
56076;DHT22;41951;49.022;12.066;2022-09-27T12:51:19;13.60;99.90
56076;DHT22;41951;49.022;12.066;2022-09-27T12:53:56;14.00;99.90
56076;DHT22;41951;49.022;12.066;2022-09-27T13:13:26;14.80;99.90
56076;DHT22;41951;49.022;12.066;2022-09-27T13:15:58;14.70;99.90
56076;DHT22;41951;49.022;12.066;2022-09-27T13:21:04;14.70;99.90
56076;DHT22;41951;49.022;12.066;2022-09-27T13:25:59;15.50;99.90
56076;DHT22;41951;49.022;12.066;2022-09-27T13:31:07;16.00;99.90
56076;DHT22;41951;49.022;12.066;2022-09-27T13:33:52;15.70;99.90
56076;DHT22;41951;49.022;12.066;2022-09-27T13:39:04;15.80;99.90
56076;DHT22;41951;49.022;12.066;2022-09-27T13:46:55;16.00;99.90
56076;DHT22;41951;49.022;12.066;2022-09-27T13:49:36;16.00;99.90
56076;DHT22;41951;49.022;12.066;2022-09-27T13:52:13;16.50;99.90
56076;DHT22;41951;49.022;12.066;2022-09-27T13:54:55;16.50;99.90
56076;DHT22;41951;49.022;12.066;2022-09-27T13:57:50;16.40;99.90
56076;DHT22;41951;49.022;12.066;2022-09-27T14:00:26;16.10;99.90
56076;DHT22;41951;49.022;12.066;2022-09-27T14:05:45;14.80;99.90
56076;DHT22;41951;49.022;12.066;2022-09-27T14:08:30;14.40;99.90
56076;DHT22;41951;49.022;12.066;2022-09-27T14:10:56;14.10;99.90
56076;DHT22;41951;49.022;12.066;2022-09-27T14:13:24;13.80;99.90
56076;DHT22;41951;49.022;12.066;2022-09-27T14:15:51;13.70;99.90
56076;DHT22;41951;49.022;12.066;2022-09-27T14:18:18;13.70;99.90
56076;DHT22;41951;49.022;12.066;2022-09-27T14:20:48;13.60;99.90
56076;DHT22;41951;49.022;12.066;2022-09-27T14:23:21;13.50;99.90
56076;DHT22;41951;49.022;12.066;2022-09-27T14:25:48;13.60;99.90
56076;DHT22;41951;49.022;12.066;2022-09-27T14:28:26;13.60;99.90
56076;DHT22;41951;49.022;12.066;2022-09-27T14:31:06;13.50;99.90
56076;DHT22;41951;49.022;12.066;2022-09-27T14:33:36;13.30;99.90
56076;DHT22;41951;49.022;12.066;2022-09-27T14:36:02;13.30;99.90
56076;DHT22;41951;49.022;12.066;2022-09-27T14:38:49;13.20;99.90
56076;DHT22;41951;49.022;12.066;2022-09-27T14:41:16;13.10;99.90
56076;DHT22;41951;49.022;12.066;2022-09-27T14:43:45;13.00;99.90
56076;DHT22;41951;49.022;12.066;2022-09-27T14:46:27;13.00;99.90
56076;DHT22;41951;49.022;12.066;2022-09-27T14:48:53;12.90;99.90
56076;DHT22;41951;49.022;12.066;2022-09-27T14:51:26;12.90;99.90
56076;DHT22;41951;49.022;12.066;2022-09-27T14:53:54;12.80;99.90
56076;DHT22;41951;49.022;12.066;2022-09-27T14:56:29;12.80;99.90
56076;DHT22;41951;49.022;12.066;2022-09-27T14:59:16;12.90;99.90
56076;DHT22;41951;49.022;12.066;2022-09-27T15:01:50;12.90;99.90
56076;DHT22;41951;49.022;12.066;2022-09-27T15:04:18;13.00;99.90
56076;DHT22;41951;49.022;12.066;2022-09-27T15:06:45;12.90;99.90
56076;DHT22;41951;49.022;12.066;2022-09-27T15:09:13;13.00;99.90
56076;DHT22;41951;49.022;12.066;2022-09-27T15:11:43;13.00;99.90
56076;DHT22;41951;49.022;12.066;2022-09-27T15:14:14;13.00;99.90
56076;DHT22;41951;49.022;12.066;2022-09-27T15:16:40;13.00;99.90
56076;DHT22;41951;49.022;12.066;2022-09-27T15:19:16;13.00;99.90
56076;DHT22;41951;49.022;12.066;2022-09-27T15:21:46;12.90;99.90
56076;DHT22;41951;49.022;12.066;2022-09-27T15:24:35;12.90;99.90
56076;DHT22;41951;49.022;12.066;2022-09-27T15:27:01;12.80;99.90
56076;DHT22;41951;49.022;12.066;2022-09-27T15:29:31;12.80;99.90
56076;DHT22;41951;49.022;12.066;2022-09-27T15:31:59;12.50;99.90
56076;DHT22;41951;49.022;12.066;2022-09-27T15:34:29;12.30;99.90
56076;DHT22;41951;49.022;12.066;2022-09-27T15:36:58;12.00;99.90
56076;DHT22;41951;49.022;12.066;2022-09-27T15:42:07;11.40;99.90
56076;DHT22;41951;49.022;12.066;2022-09-27T15:52:44;10.60;99.90
56076;DHT22;41951;49.022;12.066;2022-09-27T15:55:21;10.50;99.90
56076;DHT22;41951;49.022;12.066;2022-09-27T15:57:53;10.30;99.90
56076;DHT22;41951;49.022;12.066;2022-09-27T16:00:19;10.30;99.90
56076;DHT22;41951;49.022;12.066;2022-09-27T16:02:45;10.20;99.90
56076;DHT22;41951;49.022;12.066;2022-09-27T16:05:12;10.10;99.90
56076;DHT22;41951;49.022;12.066;2022-09-27T16:07:41;10.10;99.90
56076;DHT22;41951;49.022;12.066;2022-09-27T16:10:29;10.10;99.90
56076;DHT22;41951;49.022;12.066;2022-09-27T16:12:56;10.20;99.90
56076;DHT22;41951;49.022;12.066;2022-09-27T16:15:21;10.30;99.90
56076;DHT22;41951;49.022;12.066;2022-09-27T16:17:47;10.20;99.90
56076;DHT22;41951;49.022;12.066;2022-09-27T16:20:17;10.20;99.90
56076;DHT22;41951;49.022;12.066;2022-09-27T16:22:44;10.30;99.90
56076;DHT22;41951;49.022;12.066;2022-09-27T16:25:09;10.30;99.90
56076;DHT22;41951;49.022;12.066;2022-09-27T16:27:35;10.30;99.90
56076;DHT22;41951;49.022;12.066;2022-09-27T16:30:01;10.40;99.90
56076;DHT22;41951;49.022;12.066;2022-09-27T16:32:26;10.40;99.90
56076;DHT22;41951;49.022;12.066;2022-09-27T16:34:52;10.40;99.90
56076;DHT22;41951;49.022;12.066;2022-09-27T16:37:17;10.50;99.90
56076;DHT22;41951;49.022;12.066;2022-09-27T16:39:43;10.40;99.90
56076;DHT22;41951;49.022;12.066;2022-09-27T16:42:09;10.50;99.90
56076;DHT22;41951;49.022;12.066;2022-09-27T16:44:34;10.50;99.90
56076;DHT22;41951;49.022;12.066;2022-09-27T16:47:04;10.40;99.90
56076;DHT22;41951;49.022;12.066;2022-09-27T16:49:31;10.30;99.90
56076;DHT22;41951;49.022;12.066;2022-09-27T16:52:16;10.30;99.90
56076;DHT22;41951;49.022;12.066;2022-09-27T16:54:42;10.30;99.90
56076;DHT22;41951;49.022;12.066;2022-09-27T16:57:07;10.30;99.90
56076;DHT22;41951;49.022;12.066;2022-09-27T16:59:33;10.30;99.90
56076;DHT22;41951;49.022;12.066;2022-09-27T17:01:59;10.20;99.90
56076;DHT22;41951;49.022;12.066;2022-09-27T17:04:26;10.20;99.90
56076;DHT22;41951;49.022;12.066;2022-09-27T17:06:55;10.20;99.90
56076;DHT22;41951;49.022;12.066;2022-09-27T17:09:21;10.20;99.90
56076;DHT22;41951;49.022;12.066;2022-09-27T17:11:47;10.20;99.90
56076;DHT22;41951;49.022;12.066;2022-09-27T17:14:12;10.10;99.90
56076;DHT22;41951;49.022;12.066;2022-09-27T17:16:42;10.10;99.90
56076;DHT22;41951;49.022;12.066;2022-09-27T17:19:08;10.10;99.90
56076;DHT22;41951;49.022;12.066;2022-09-27T17:21:35;10.10;99.90
56076;DHT22;41951;49.022;12.066;2022-09-27T17:24:01;10.00;99.90
56076;DHT22;41951;49.022;12.066;2022-09-27T17:26:27;10.00;99.90
56076;DHT22;41951;49.022;12.066;2022-09-27T17:28:55;10.00;99.90
56076;DHT22;41951;49.022;12.066;2022-09-27T17:31:25;10.00;99.90
56076;DHT22;41951;49.022;12.066;2022-09-27T17:33:52;10.00;99.90
56076;DHT22;41951;49.022;12.066;2022-09-27T17:36:20;9.90;99.90
56076;DHT22;41951;49.022;12.066;2022-09-27T17:38:47;9.90;99.90
56076;DHT22;41951;49.022;12.066;2022-09-27T17:41:15;9.90;99.90
56076;DHT22;41951;49.022;12.066;2022-09-27T17:43:43;9.90;99.90
56076;DHT22;41951;49.022;12.066;2022-09-27T17:46:15;9.90;99.90
56076;DHT22;41951;49.022;12.066;2022-09-27T17:48:41;9.90;99.90
56076;DHT22;41951;49.022;12.066;2022-09-27T17:51:25;9.90;99.90
56076;DHT22;41951;49.022;12.066;2022-09-27T17:53:51;10.00;99.90
56076;DHT22;41951;49.022;12.066;2022-09-27T17:56:17;10.00;99.90
56076;DHT22;41951;49.022;12.066;2022-09-27T17:58:47;10.10;99.90
56076;DHT22;41951;49.022;12.066;2022-09-27T18:01:14;10.00;99.90
56076;DHT22;41951;49.022;12.066;2022-09-27T18:03:40;10.00;99.90
56076;DHT22;41951;49.022;12.066;2022-09-27T18:06:08;10.10;99.90
56076;DHT22;41951;49.022;12.066;2022-09-27T18:08:33;10.00;99.90
56076;DHT22;41951;49.022;12.066;2022-09-27T18:11:24;10.00;99.90
56076;DHT22;41951;49.022;12.066;2022-09-27T18:13:54;9.90;99.90
56076;DHT22;41951;49.022;12.066;2022-09-27T18:16:20;10.00;99.90
56076;DHT22;41951;49.022;12.066;2022-09-27T18:18:47;10.00;99.90